sensor_id;sensor_type;location;lat;lon;timestamp;temperature;humidity
16867;DHT22;8550;52.596;13.320;2023-05-07T00:00:46;9.50;99.90
16867;DHT22;8550;52.596;13.320;2023-05-07T00:05:48;9.50;99.90
16867;DHT22;8550;52.596;13.320;2023-05-07T00:10:52;9.50;99.90
16867;DHT22;8550;52.596;13.320;2023-05-07T00:15:54;9.50;99.90
16867;DHT22;8550;52.596;13.320;2023-05-07T00:20:56;9.50;99.90
16867;DHT22;8550;52.596;13.320;2023-05-07T00:25:59;9.50;99.90
16867;DHT22;8550;52.596;13.320;2023-05-07T00:31:01;9.50;99.90
16867;DHT22;8550;52.596;13.320;2023-05-07T00:36:04;9.50;99.90
16867;DHT22;8550;52.596;13.320;2023-05-07T00:41:07;9.50;99.90
16867;DHT22;8550;52.596;13.320;2023-05-07T00:46:09;9.50;99.90
16867;DHT22;8550;52.596;13.320;2023-05-07T00:51:12;9.50;99.90
16867;DHT22;8550;52.596;13.320;2023-05-07T00:56:15;9.50;99.90
16867;DHT22;8550;52.596;13.320;2023-05-07T01:01:18;9.50;99.90
16867;DHT22;8550;52.596;13.320;2023-05-07T01:06:21;9.50;99.90
16867;DHT22;8550;52.596;13.320;2023-05-07T01:11:26;9.60;99.90
16867;DHT22;8550;52.596;13.320;2023-05-07T01:16:28;9.60;99.90
16867;DHT22;8550;52.596;13.320;2023-05-07T01:21:33;9.60;99.90
16867;DHT22;8550;52.596;13.320;2023-05-07T01:26:37;9.60;99.90
16867;DHT22;8550;52.596;13.320;2023-05-07T01:31:40;9.50;99.90
16867;DHT22;8550;52.596;13.320;2023-05-07T01:36:43;9.50;99.90
16867;DHT22;8550;52.596;13.320;2023-05-07T01:41:47;9.50;99.90
16867;DHT22;8550;52.596;13.320;2023-05-07T01:46:49;9.40;99.90
16867;DHT22;8550;52.596;13.320;2023-05-07T01:51:51;9.40;99.90
16867;DHT22;8550;52.596;13.320;2023-05-07T01:56:56;9.50;99.90
16867;DHT22;8550;52.596;13.320;2023-05-07T02:01:58;9.40;99.90
16867;DHT22;8550;52.596;13.320;2023-05-07T02:07:01;9.40;99.90
16867;DHT22;8550;52.596;13.320;2023-05-07T02:12:04;9.30;99.90
16867;DHT22;8550;52.596;13.320;2023-05-07T02:17:07;9.30;99.90
16867;DHT22;8550;52.596;13.320;2023-05-07T02:22:10;9.40;99.90
16867;DHT22;8550;52.596;13.320;2023-05-07T02:27:15;9.30;99.90
16867;DHT22;8550;52.596;13.320;2023-05-07T02:32:17;9.30;99.90
16867;DHT22;8550;52.596;13.320;2023-05-07T02:37:19;9.40;99.90
16867;DHT22;8550;52.596;13.320;2023-05-07T02:42:23;9.40;99.90
16867;DHT22;8550;52.596;13.320;2023-05-07T02:47:26;9.40;99.90
16867;DHT22;8550;52.596;13.320;2023-05-07T02:52:30;9.30;99.90
16867;DHT22;8550;52.596;13.320;2023-05-07T02:57:33;9.30;99.90
16867;DHT22;8550;52.596;13.320;2023-05-07T03:02:35;9.40;99.90
16867;DHT22;8550;52.596;13.320;2023-05-07T03:07:37;9.40;99.90
16867;DHT22;8550;52.596;13.320;2023-05-07T03:12:42;9.40;99.90
16867;DHT22;8550;52.596;13.320;2023-05-07T03:17:44;9.30;99.90
16867;DHT22;8550;52.596;13.320;2023-05-07T03:22:46;9.30;99.90
16867;DHT22;8550;52.596;13.320;2023-05-07T03:27:50;9.40;99.90
16867;DHT22;8550;52.596;13.320;2023-05-07T03:32:52;9.40;99.90
16867;DHT22;8550;52.596;13.320;2023-05-07T03:37:53;9.40;99.90
16867;DHT22;8550;52.596;13.320;2023-05-07T03:42:57;9.40;99.90
16867;DHT22;8550;52.596;13.320;2023-05-07T03:47:59;9.40;99.90
16867;DHT22;8550;52.596;13.320;2023-05-07T03:53:01;9.40;99.90
16867;DHT22;8550;52.596;13.320;2023-05-07T03:58:05;9.40;99.90
16867;DHT22;8550;52.596;13.320;2023-05-07T04:03:08;9.50;99.90
16867;DHT22;8550;52.596;13.320;2023-05-07T04:08:10;9.40;99.90
16867;DHT22;8550;52.596;13.320;2023-05-07T04:13:13;9.40;99.90
16867;DHT22;8550;52.596;13.320;2023-05-07T04:18:15;9.40;99.90
16867;DHT22;8550;52.596;13.320;2023-05-07T04:23:17;9.40;99.90
16867;DHT22;8550;52.596;13.320;2023-05-07T04:28:21;9.40;99.90
16867;DHT22;8550;52.596;13.320;2023-05-07T04:33:23;9.50;99.90
16867;DHT22;8550;52.596;13.320;2023-05-07T04:38:25;9.60;99.90
16867;DHT22;8550;52.596;13.320;2023-05-07T04:43:28;9.80;99.90
16867;DHT22;8550;52.596;13.320;2023-05-07T04:48:31;9.80;99.90
16867;DHT22;8550;52.596;13.320;2023-05-07T04:53:32;9.80;99.90
16867;DHT22;8550;52.596;13.320;2023-05-07T04:58:36;9.80;99.90
16867;DHT22;8550;52.596;13.320;2023-05-07T05:03:37;9.90;99.90
16867;DHT22;8550;52.596;13.320;2023-05-07T05:08:39;9.90;99.90
16867;DHT22;8550;52.596;13.320;2023-05-07T05:13:43;9.90;99.90
16867;DHT22;8550;52.596;13.320;2023-05-07T05:18:45;10.00;99.90
16867;DHT22;8550;52.596;13.320;2023-05-07T05:23:47;9.90;99.90
16867;DHT22;8550;52.596;13.320;2023-05-07T05:28:50;10.00;99.90
16867;DHT22;8550;52.596;13.320;2023-05-07T05:33:52;10.10;99.90
16867;DHT22;8550;52.596;13.320;2023-05-07T05:38:55;10.20;99.90
16867;DHT22;8550;52.596;13.320;2023-05-07T05:43:59;10.40;99.90
16867;DHT22;8550;52.596;13.320;2023-05-07T05:49:00;10.60;99.90
16867;DHT22;8550;52.596;13.320;2023-05-07T05:54:03;10.60;99.90
16867;DHT22;8550;52.596;13.320;2023-05-07T05:59:07;10.60;99.90
16867;DHT22;8550;52.596;13.320;2023-05-07T06:04:09;10.70;99.90
16867;DHT22;8550;52.596;13.320;2023-05-07T06:09:11;10.60;99.90
16867;DHT22;8550;52.596;13.320;2023-05-07T06:14:14;10.70;99.90
16867;DHT22;8550;52.596;13.320;2023-05-07T06:19:16;10.90;99.90
16867;DHT22;8550;52.596;13.320;2023-05-07T06:24:24;11.00;99.90
16867;DHT22;8550;52.596;13.320;2023-05-07T06:29:28;11.50;99.90
16867;DHT22;8550;52.596;13.320;2023-05-07T06:34:32;11.50;99.90
16867;DHT22;8550;52.596;13.320;2023-05-07T06:39:33;11.50;99.90
16867;DHT22;8550;52.596;13.320;2023-05-07T06:44:37;11.90;99.90
16867;DHT22;8550;52.596;13.320;2023-05-07T06:49:39;11.70;99.90
16867;DHT22;8550;52.596;13.320;2023-05-07T06:54:41;11.50;99.90
16867;DHT22;8550;52.596;13.320;2023-05-07T06:59:45;11.70;99.90
16867;DHT22;8550;52.596;13.320;2023-05-07T07:04:47;11.80;99.90
16867;DHT22;8550;52.596;13.320;2023-05-07T07:09:49;12.20;99.90
16867;DHT22;8550;52.596;13.320;2023-05-07T07:14:53;12.20;99.90
16867;DHT22;8550;52.596;13.320;2023-05-07T07:19:55;12.40;99.90
16867;DHT22;8550;52.596;13.320;2023-05-07T07:24:57;12.40;99.90
16867;DHT22;8550;52.596;13.320;2023-05-07T07:30:00;12.60;99.90
16867;DHT22;8550;52.596;13.320;2023-05-07T07:35:02;12.70;99.90
16867;DHT22;8550;52.596;13.320;2023-05-07T07:40:06;12.80;99.90
16867;DHT22;8550;52.596;13.320;2023-05-07T07:45:14;12.80;99.90
16867;DHT22;8550;52.596;13.320;2023-05-07T07:50:16;12.80;99.90
16867;DHT22;8550;52.596;13.320;2023-05-07T07:55:20;12.90;99.90
16867;DHT22;8550;52.596;13.320;2023-05-07T08:00:25;13.10;99.90
16867;DHT22;8550;52.596;13.320;2023-05-07T08:05:27;13.00;99.90
16867;DHT22;8550;52.596;13.320;2023-05-07T08:10:29;13.10;99.90
16867;DHT22;8550;52.596;13.320;2023-05-07T08:15:35;13.20;99.90
16867;DHT22;8550;52.596;13.320;2023-05-07T08:20:37;13.30;99.90
16867;DHT22;8550;52.596;13.320;2023-05-07T08:25:40;13.60;99.90
16867;DHT22;8550;52.596;13.320;2023-05-07T08:30:44;13.70;99.90
16867;DHT22;8550;52.596;13.320;2023-05-07T08:35:47;14.20;99.90
16867;DHT22;8550;52.596;13.320;2023-05-07T08:40:49;14.10;99.90
16867;DHT22;8550;52.596;13.320;2023-05-07T08:45:53;14.30;99.90
16867;DHT22;8550;52.596;13.320;2023-05-07T08:50:55;14.60;99.90
16867;DHT22;8550;52.596;13.320;2023-05-07T08:55:58;14.50;99.90
16867;DHT22;8550;52.596;13.320;2023-05-07T09:01:05;14.80;99.90
16867;DHT22;8550;52.596;13.320;2023-05-07T09:06:08;14.70;99.90
16867;DHT22;8550;52.596;13.320;2023-05-07T09:11:10;15.00;99.90
16867;DHT22;8550;52.596;13.320;2023-05-07T09:16:15;15.20;99.90
16867;DHT22;8550;52.596;13.320;2023-05-07T09:21:17;15.40;99.90
16867;DHT22;8550;52.596;13.320;2023-05-07T09:26:21;15.40;99.90
16867;DHT22;8550;52.596;13.320;2023-05-07T09:31:24;15.40;99.90
16867;DHT22;8550;52.596;13.320;2023-05-07T09:36:27;15.50;99.90
16867;DHT22;8550;52.596;13.320;2023-05-07T09:41:30;15.80;99.90
16867;DHT22;8550;52.596;13.320;2023-05-07T09:46:36;15.70;99.90
16867;DHT22;8550;52.596;13.320;2023-05-07T09:51:45;16.40;99.90
16867;DHT22;8550;52.596;13.320;2023-05-07T09:57:02;16.40;99.90
16867;DHT22;8550;52.596;13.320;2023-05-07T10:02:07;16.00;99.50
16867;DHT22;8550;52.596;13.320;2023-05-07T10:07:11;16.10;99.90
16867;DHT22;8550;52.596;13.320;2023-05-07T10:12:15;16.20;99.90
16867;DHT22;8550;52.596;13.320;2023-05-07T10:17:22;16.30;99.90
16867;DHT22;8550;52.596;13.320;2023-05-07T10:22:25;16.40;99.40
16867;DHT22;8550;52.596;13.320;2023-05-07T10:27:29;16.60;99.70
16867;DHT22;8550;52.596;13.320;2023-05-07T10:32:38;16.80;98.40
16867;DHT22;8550;52.596;13.320;2023-05-07T10:37:41;16.90;97.90
16867;DHT22;8550;52.596;13.320;2023-05-07T10:42:56;17.20;96.70
16867;DHT22;8550;52.596;13.320;2023-05-07T10:48:08;17.20;96.70
16867;DHT22;8550;52.596;13.320;2023-05-07T10:53:23;17.10;97.30
16867;DHT22;8550;52.596;13.320;2023-05-07T10:58:28;17.30;96.80
16867;DHT22;8550;52.596;13.320;2023-05-07T11:03:34;17.20;96.50
16867;DHT22;8550;52.596;13.320;2023-05-07T11:08:53;17.10;96.00
16867;DHT22;8550;52.596;13.320;2023-05-07T11:13:55;18.90;92.70
16867;DHT22;8550;52.596;13.320;2023-05-07T11:18:59;20.40;89.30
16867;DHT22;8550;52.596;13.320;2023-05-07T11:24:03;21.80;78.90
16867;DHT22;8550;52.596;13.320;2023-05-07T11:29:11;23.50;72.70
16867;DHT22;8550;52.596;13.320;2023-05-07T11:34:15;24.50;63.40
16867;DHT22;8550;52.596;13.320;2023-05-07T11:39:26;24.40;63.80
16867;DHT22;8550;52.596;13.320;2023-05-07T11:44:50;25.70;59.00
16867;DHT22;8550;52.596;13.320;2023-05-07T11:49:54;25.90;53.80
16867;DHT22;8550;52.596;13.320;2023-05-07T11:54:57;24.00;56.60
16867;DHT22;8550;52.596;13.320;2023-05-07T12:00:00;22.30;62.70
16867;DHT22;8550;52.596;13.320;2023-05-07T12:05:06;22.20;62.20
16867;DHT22;8550;52.596;13.320;2023-05-07T12:10:11;22.30;63.60
16867;DHT22;8550;52.596;13.320;2023-05-07T12:15:15;21.80;65.70
16867;DHT22;8550;52.596;13.320;2023-05-07T12:20:19;22.50;63.50
16867;DHT22;8550;52.596;13.320;2023-05-07T12:25:21;22.30;62.70
16867;DHT22;8550;52.596;13.320;2023-05-07T12:30:23;24.10;59.50
16867;DHT22;8550;52.596;13.320;2023-05-07T12:35:30;23.80;58.80
16867;DHT22;8550;52.596;13.320;2023-05-07T12:40:36;23.80;57.10
16867;DHT22;8550;52.596;13.320;2023-05-07T12:45:41;25.10;55.40
16867;DHT22;8550;52.596;13.320;2023-05-07T12:50:45;25.50;52.70
16867;DHT22;8550;52.596;13.320;2023-05-07T12:55:52;25.60;51.90
16867;DHT22;8550;52.596;13.320;2023-05-07T13:00:54;27.20;51.50
16867;DHT22;8550;52.596;13.320;2023-05-07T13:06:01;27.50;49.50
16867;DHT22;8550;52.596;13.320;2023-05-07T13:11:06;26.70;48.80
16867;DHT22;8550;52.596;13.320;2023-05-07T13:16:09;27.20;48.70
16867;DHT22;8550;52.596;13.320;2023-05-07T13:21:13;27.40;48.10
16867;DHT22;8550;52.596;13.320;2023-05-07T13:26:15;27.40;47.60
16867;DHT22;8550;52.596;13.320;2023-05-07T13:31:17;26.80;50.20
16867;DHT22;8550;52.596;13.320;2023-05-07T13:36:20;26.70;49.50
16867;DHT22;8550;52.596;13.320;2023-05-07T13:41:22;24.70;51.30
16867;DHT22;8550;52.596;13.320;2023-05-07T13:46:24;24.90;51.20
16867;DHT22;8550;52.596;13.320;2023-05-07T13:51:27;26.00;49.50
16867;DHT22;8550;52.596;13.320;2023-05-07T13:56:29;27.00;49.60
16867;DHT22;8550;52.596;13.320;2023-05-07T14:01:32;24.30;49.60
16867;DHT22;8550;52.596;13.320;2023-05-07T14:06:36;23.80;52.50
16867;DHT22;8550;52.596;13.320;2023-05-07T14:11:38;23.30;55.10
16867;DHT22;8550;52.596;13.320;2023-05-07T14:16:40;22.80;53.10
16867;DHT22;8550;52.596;13.320;2023-05-07T14:21:43;22.80;53.30
16867;DHT22;8550;52.596;13.320;2023-05-07T14:26:45;22.90;52.60
16867;DHT22;8550;52.596;13.320;2023-05-07T14:31:47;21.30;54.70
16867;DHT22;8550;52.596;13.320;2023-05-07T14:36:50;22.50;54.80
16867;DHT22;8550;52.596;13.320;2023-05-07T14:41:52;24.40;50.30
16867;DHT22;8550;52.596;13.320;2023-05-07T14:46:56;22.50;52.70
16867;DHT22;8550;52.596;13.320;2023-05-07T14:51:59;20.40;57.30
16867;DHT22;8550;52.596;13.320;2023-05-07T14:57:01;20.00;59.20
16867;DHT22;8550;52.596;13.320;2023-05-07T15:02:03;19.50;61.00
16867;DHT22;8550;52.596;13.320;2023-05-07T15:07:08;19.40;60.60
16867;DHT22;8550;52.596;13.320;2023-05-07T15:12:11;19.40;61.00
16867;DHT22;8550;52.596;13.320;2023-05-07T15:17:13;18.90;64.60
16867;DHT22;8550;52.596;13.320;2023-05-07T15:22:17;18.80;65.00
16867;DHT22;8550;52.596;13.320;2023-05-07T15:27:19;18.30;67.30
16867;DHT22;8550;52.596;13.320;2023-05-07T15:32:21;18.30;67.50
16867;DHT22;8550;52.596;13.320;2023-05-07T15:37:24;18.30;65.90
16867;DHT22;8550;52.596;13.320;2023-05-07T15:42:26;18.40;68.30
16867;DHT22;8550;52.596;13.320;2023-05-07T15:47:32;18.80;66.70
16867;DHT22;8550;52.596;13.320;2023-05-07T15:52:36;18.90;66.70
16867;DHT22;8550;52.596;13.320;2023-05-07T15:57:38;18.60;67.40
16867;DHT22;8550;52.596;13.320;2023-05-07T16:02:40;18.40;67.20
16867;DHT22;8550;52.596;13.320;2023-05-07T16:07:44;17.70;68.60
16867;DHT22;8550;52.596;13.320;2023-05-07T16:12:45;17.40;69.50
16867;DHT22;8550;52.596;13.320;2023-05-07T16:17:47;17.60;71.70
16867;DHT22;8550;52.596;13.320;2023-05-07T16:22:52;18.10;69.30
16867;DHT22;8550;52.596;13.320;2023-05-07T16:27:55;17.90;72.40
16867;DHT22;8550;52.596;13.320;2023-05-07T16:32:57;17.40;72.20
16867;DHT22;8550;52.596;13.320;2023-05-07T16:38:00;17.20;72.60
16867;DHT22;8550;52.596;13.320;2023-05-07T16:43:09;16.90;73.60
16867;DHT22;8550;52.596;13.320;2023-05-07T16:48:12;16.80;75.70
16867;DHT22;8550;52.596;13.320;2023-05-07T16:53:15;16.80;75.50
16867;DHT22;8550;52.596;13.320;2023-05-07T16:58:17;16.70;76.90
16867;DHT22;8550;52.596;13.320;2023-05-07T17:03:21;16.60;76.20
16867;DHT22;8550;52.596;13.320;2023-05-07T17:08:24;16.30;78.10
16867;DHT22;8550;52.596;13.320;2023-05-07T17:13:26;16.10;81.40
16867;DHT22;8550;52.596;13.320;2023-05-07T17:18:30;16.30;79.60
16867;DHT22;8550;52.596;13.320;2023-05-07T17:23:33;16.40;78.50
16867;DHT22;8550;52.596;13.320;2023-05-07T17:28:35;16.20;78.00
16867;DHT22;8550;52.596;13.320;2023-05-07T17:33:37;15.70;79.70
16867;DHT22;8550;52.596;13.320;2023-05-07T17:38:40;15.20;81.80
16867;DHT22;8550;52.596;13.320;2023-05-07T17:43:42;14.90;85.50
16867;DHT22;8550;52.596;13.320;2023-05-07T17:48:44;14.90;85.40
16867;DHT22;8550;52.596;13.320;2023-05-07T17:53:48;14.80;85.90
16867;DHT22;8550;52.596;13.320;2023-05-07T17:58:50;14.80;86.90
16867;DHT22;8550;52.596;13.320;2023-05-07T18:03:53;14.90;87.30
16867;DHT22;8550;52.596;13.320;2023-05-07T18:08:57;14.80;88.20
16867;DHT22;8550;52.596;13.320;2023-05-07T18:13:59;14.70;88.20
16867;DHT22;8550;52.596;13.320;2023-05-07T18:19:01;14.70;88.80
16867;DHT22;8550;52.596;13.320;2023-05-07T18:24:05;14.60;89.40
16867;DHT22;8550;52.596;13.320;2023-05-07T18:29:07;14.40;89.40
16867;DHT22;8550;52.596;13.320;2023-05-07T18:34:09;14.20;90.80
16867;DHT22;8550;52.596;13.320;2023-05-07T18:39:12;14.10;91.50
16867;DHT22;8550;52.596;13.320;2023-05-07T18:44:14;13.90;92.30
16867;DHT22;8550;52.596;13.320;2023-05-07T18:49:16;13.80;92.80
16867;DHT22;8550;52.596;13.320;2023-05-07T18:54:19;13.60;93.10
16867;DHT22;8550;52.596;13.320;2023-05-07T18:59:21;13.50;94.20
16867;DHT22;8550;52.596;13.320;2023-05-07T19:04:23;13.30;95.40
16867;DHT22;8550;52.596;13.320;2023-05-07T19:09:26;13.10;95.50
16867;DHT22;8550;52.596;13.320;2023-05-07T19:14:28;12.90;96.40
16867;DHT22;8550;52.596;13.320;2023-05-07T19:19:30;12.70;95.90
16867;DHT22;8550;52.596;13.320;2023-05-07T19:24:35;12.60;96.30
16867;DHT22;8550;52.596;13.320;2023-05-07T19:29:38;12.50;97.20
16867;DHT22;8550;52.596;13.320;2023-05-07T19:34:40;12.40;97.60
16867;DHT22;8550;52.596;13.320;2023-05-07T19:39:43;12.40;97.20
16867;DHT22;8550;52.596;13.320;2023-05-07T19:44:45;12.30;97.60
16867;DHT22;8550;52.596;13.320;2023-05-07T19:49:48;12.30;98.30
16867;DHT22;8550;52.596;13.320;2023-05-07T19:54:51;12.20;99.70
16867;DHT22;8550;52.596;13.320;2023-05-07T19:59:54;12.10;99.90
16867;DHT22;8550;52.596;13.320;2023-05-07T20:04:56;12.00;99.90
16867;DHT22;8550;52.596;13.320;2023-05-07T20:09:59;11.90;99.90
16867;DHT22;8550;52.596;13.320;2023-05-07T20:15:01;11.80;99.90
16867;DHT22;8550;52.596;13.320;2023-05-07T20:20:04;11.70;99.90
16867;DHT22;8550;52.596;13.320;2023-05-07T20:25:09;11.60;99.90
16867;DHT22;8550;52.596;13.320;2023-05-07T20:30:13;11.60;99.90
16867;DHT22;8550;52.596;13.320;2023-05-07T20:35:15;11.50;99.90
16867;DHT22;8550;52.596;13.320;2023-05-07T20:40:18;11.40;99.90
16867;DHT22;8550;52.596;13.320;2023-05-07T20:45:21;11.30;99.90
16867;DHT22;8550;52.596;13.320;2023-05-07T20:50:23;11.20;99.90
16867;DHT22;8550;52.596;13.320;2023-05-07T20:55:27;11.30;99.90
16867;DHT22;8550;52.596;13.320;2023-05-07T21:00:29;11.30;99.90
16867;DHT22;8550;52.596;13.320;2023-05-07T21:05:31;11.20;99.90
16867;DHT22;8550;52.596;13.320;2023-05-07T21:10:34;11.20;99.90
16867;DHT22;8550;52.596;13.320;2023-05-07T21:15:36;11.20;99.90
16867;DHT22;8550;52.596;13.320;2023-05-07T21:20:38;11.10;99.90
16867;DHT22;8550;52.596;13.320;2023-05-07T21:25:41;11.00;99.90
16867;DHT22;8550;52.596;13.320;2023-05-07T21:30:46;10.90;99.90
16867;DHT22;8550;52.596;13.320;2023-05-07T21:35:48;10.80;99.90
16867;DHT22;8550;52.596;13.320;2023-05-07T21:40:52;10.70;99.90
16867;DHT22;8550;52.596;13.320;2023-05-07T21:45:53;10.60;99.90
16867;DHT22;8550;52.596;13.320;2023-05-07T21:50:59;10.60;99.90
16867;DHT22;8550;52.596;13.320;2023-05-07T21:56:04;10.40;99.90
16867;DHT22;8550;52.596;13.320;2023-05-07T22:01:06;10.40;99.90
16867;DHT22;8550;52.596;13.320;2023-05-07T22:06:11;10.30;99.90
16867;DHT22;8550;52.596;13.320;2023-05-07T22:11:15;10.20;99.90
16867;DHT22;8550;52.596;13.320;2023-05-07T22:16:17;10.00;99.90
16867;DHT22;8550;52.596;13.320;2023-05-07T22:21:20;10.00;99.90
16867;DHT22;8550;52.596;13.320;2023-05-07T22:26:24;10.00;99.90
16867;DHT22;8550;52.596;13.320;2023-05-07T22:31:26;9.90;99.90
16867;DHT22;8550;52.596;13.320;2023-05-07T22:36:28;9.70;99.90
16867;DHT22;8550;52.596;13.320;2023-05-07T22:41:34;9.70;99.90
16867;DHT22;8550;52.596;13.320;2023-05-07T22:46:36;9.80;99.90
16867;DHT22;8550;52.596;13.320;2023-05-07T22:51:38;9.80;99.90
16867;DHT22;8550;52.596;13.320;2023-05-07T22:56:41;9.60;99.90
16867;DHT22;8550;52.596;13.320;2023-05-07T23:01:43;9.50;99.90
16867;DHT22;8550;52.596;13.320;2023-05-07T23:06:45;9.40;99.90
16867;DHT22;8550;52.596;13.320;2023-05-07T23:11:49;9.40;99.90
16867;DHT22;8550;52.596;13.320;2023-05-07T23:16:51;9.30;99.90
16867;DHT22;8550;52.596;13.320;2023-05-07T23:21:53;9.10;99.90
16867;DHT22;8550;52.596;13.320;2023-05-07T23:26:56;9.10;99.90
16867;DHT22;8550;52.596;13.320;2023-05-07T23:31:58;9.00;99.90
16867;DHT22;8550;52.596;13.320;2023-05-07T23:37:00;8.90;99.90
16867;DHT22;8550;52.596;13.320;2023-05-07T23:42:04;8.90;99.90
16867;DHT22;8550;52.596;13.320;2023-05-07T23:47:06;8.90;99.90
16867;DHT22;8550;52.596;13.320;2023-05-07T23:52:10;8.80;99.90
16867;DHT22;8550;52.596;13.320;2023-05-07T23:57:13;8.70;99.90
